Flight Track Log - Related Links

Times and Time Zones

All times are in EDT time to prevent confusion due to time zone crossing. See the AAL832 flight status page for this flight to view local times or setup timezone preferences in your user account.

Time Position Orientation Groundspeed Altitude Reporting Facility
EDT Latitude Longitude Course Direction KTS MPH feet Rate Location/Type
Thu 06:54:45 PM 41.9167 -87.9167 180° South 189 217 2,600  Level Chicago TRACON
Thu 06:55:22 PM 41.8744 -87.9094 173° South 243 280 3,400 2,424 Climbing Chicago Center
Thu 06:56:24 PM 41.8011 -87.9017 175° South 258 297 6,600 2,758 Climbing Chicago Center
Thu 06:57:26 PM 41.7219 -87.8922 175° South 285 328 9,100 2,468 Climbing Chicago Center
Thu 06:58:28 PM 41.6339 -87.8894 179° South 313 360 11,700 2,126 Climbing Chicago Center
Thu 06:59:33 PM 41.5111 -87.8825 178° South 377 434 13,600 1,937 Climbing Chicago Center
Thu 07:00:00 PM 41.3281 -87.5272 180° South  Level Estimated
Thu 07:00:35 PM 41.3967 -87.8767 178° South 402 463 15,800  Level Chicago Center
Thu 07:01:38 PM 41.2797 -87.8886 184° South 415 478 17,900 1,968 Climbing Chicago Center
Thu 07:02:40 PM 41.1603 -87.8906 181° South 428 493 19,900 1,694 Climbing Chicago Center
Thu 07:03:42 PM 41.0378 -87.8844 178° South 440 506 21,400 1,452 Climbing Chicago Center
Thu 07:04:44 PM 40.9100 -87.8806 179° South 458 527 22,900 1,403 Climbing Chicago Center
Thu 07:05:46 PM 40.7783 -87.8764 179° South 472 543 24,300 1,452 Climbing Chicago Center
Thu 07:06:48 PM 40.6181 -87.8714 179° South 483 556 25,900 1,403 Climbing Chicago Center
Thu 07:07:50 PM 40.4808 -87.8664 178° South 493 567 27,200 1,306 Climbing Chicago Center
Thu 07:08:52 PM 40.3419 -87.8614 178° South 498 573 28,600 1,403 Climbing Chicago Center
Thu 07:09:54 PM 40.2053 -87.8572 179° South 497 572 30,100 1,444 Climbing Chicago Center
Thu 07:10:40 PM 40.0958 -87.8528 178° South 495 570 31,200 1,333 Climbing Indianapolis Center
Thu 07:11:42 PM 39.9625 -87.8250 171° South 489 563 32,500 1,161 Climbing Indianapolis Center
Thu 07:12:44 PM 39.8289 -87.8153 177° South 485 558 33,600 1,113 Climbing Indianapolis Center
Thu 07:13:46 PM 39.6664 -87.8047 177° South 486 559 34,800 1,016 Climbing Indianapolis Center
Thu 07:14:48 PM 39.5333 -87.7956 177° South 484 557 35,700 774 Climbing Indianapolis Center
Thu 07:15:50 PM 39.3994 -87.7881 178° South 484 557 36,400 629 Climbing Indianapolis Center
Thu 07:16:52 PM 39.2542 -87.7694 174° South 480 552 37,000 532 Climbing Indianapolis Center
Thu 07:17:54 PM 39.1339 -87.6936 154° Southeast 478 550 37,500 484 Climbing Indianapolis Center
Thu 07:18:56 PM 39.0147 -87.6164 153° Southeast 476 548 38,000 242 Climbing Indianapolis Center
Thu 07:19:58 PM 38.8953 -87.5417 154° Southeast 477 549 38,000  Level Indianapolis Center
Thu 07:21:00 PM 38.7764 -87.4653 153° Southeast 477 549 38,000  Level Indianapolis Center
Thu 07:22:02 PM 38.6564 -87.3908 154° Southeast 477 549 38,000  Level Indianapolis Center
Thu 07:23:04 PM 38.5133 -87.2994 153° Southeast 478 550 38,000  Level Indianapolis Center
Thu 07:24:06 PM 38.3942 -87.2264 154° Southeast 477 549 38,000 -145 Level Indianapolis Center
Thu 07:25:08 PM 38.2661 -87.1456 154° Southeast 484 557 37,700 -339 Descending Indianapolis Center
Thu 07:26:10 PM 38.1594 -87.0786 154° Southeast 483 556 37,300 -290 Descending Indianapolis Center
Thu 07:27:12 PM 38.0386 -87.0033 154° Southeast 485 558 37,100 -145 Descending Indianapolis Center
Thu 07:28:14 PM 37.8936 -86.9128 154° Southeast 485 558 37,000 -49 Descending Indianapolis Center
Thu 07:29:15 PM 37.7728 -86.8392 154° Southeast 480 552 37,000  Level Indianapolis Center
Thu 07:30:17 PM 37.6517 -86.7653 154° Southeast 482 555 37,000  Level Indianapolis Center
Thu 07:31:19 PM 37.5344 -86.6956 155° Southeast 481 554 37,000  Level Indianapolis Center
Thu 07:32:21 PM 37.4119 -86.6189 154° Southeast 482 555 37,000  Level Indianapolis Center
Thu 07:33:23 PM 37.2686 -86.5328 154° Southeast 481 554 37,000  Level Indianapolis Center
Thu 07:34:25 PM 37.1469 -86.4586 154° Southeast 478 550 37,000  Level Indianapolis Center
Thu 07:35:26 PM 37.0258 -86.3856 154° Southeast 473 544 37,000  Level Indianapolis Center
Thu 07:36:28 PM 36.9056 -86.3114 154° Southeast 472 543 37,000  Level Indianapolis Center
Thu 07:37:30 PM 36.7861 -86.2406 155° Southeast 468 539 37,000  Level Indianapolis Center
Thu 07:38:32 PM 36.6675 -86.1686 154° Southeast 467 537 37,000  Level Indianapolis Center
Thu 07:39:34 PM 36.5478 -86.0981 155° Southeast 469 540 37,000  Level Indianapolis Center
Thu 07:40:35 PM 36.4303 -86.0286 155° Southeast 464 534 37,000  Level Indianapolis Center
Thu 07:41:37 PM 36.3103 -85.9575 154° Southeast 470 541 37,000  Level Indianapolis Center
Thu 07:42:39 PM 36.1897 -85.8861 154° Southeast 471 542 37,000  Level Indianapolis Center
Thu 07:43:43 PM 36.0458 -85.8056 156° South 472 543 37,000  Level Memphis Center
Thu 07:45:56 PM 35.7828 -85.6514 155° Southeast 476 548 37,000  Level Atlanta Center
Thu 07:46:56 PM 35.6628 -85.5825 155° Southeast 481 554 37,000  Level Atlanta Center
Thu 07:47:56 PM 35.5447 -85.5139 155° Southeast 481 554 37,000  Level Atlanta Center
Thu 07:48:00 PM 35.5540 -85.4905 155° Southeast  Level FlightAware Approximate
Thu 07:48:56 PM 35.4244 -85.4456 155° Southeast 481 554 37,000  Level Atlanta Center
Thu 07:49:56 PM 35.3061 -85.3800 156° South 481 554 37,000  Level Atlanta Center
Thu 07:50:56 PM 35.1881 -85.3119 155° Southeast 481 554 37,000  Level Atlanta Center
Thu 07:51:56 PM 35.0656 -85.2492 157° South 481 554 37,000  Level Atlanta Center
Thu 07:52:56 PM 34.9450 -85.1892 158° South 475 547 37,000  Level Atlanta Center
Thu 07:53:56 PM 34.8225 -85.1292 158° South 475 547 37,000  Level Atlanta Center
Thu 07:54:56 PM 34.6978 -85.0722 159° South 475 547 37,000  Level Atlanta Center
Thu 07:55:56 PM 34.5794 -85.0125 157° South 465 535 37,000  Level Atlanta Center
Thu 07:56:56 PM 34.4567 -84.9558 159° South 465 535 37,000  Level Atlanta Center
Thu 07:57:56 PM 34.3319 -84.8967 159° South 476 548 37,000  Level Atlanta Center
Thu 07:58:56 PM 34.2111 -84.8400 159° South 471 542 37,000  Level Atlanta Center
Thu 07:59:56 PM 34.0842 -84.7811 159° South 471 542 37,000  Level Atlanta Center
Thu 08:00:56 PM 33.9614 -84.7200 158° South 476 548 37,000  Level Atlanta Center
Thu 08:01:56 PM 33.8364 -84.6639 160° South 476 548 37,000  Level Atlanta Center
Thu 08:02:56 PM 33.7158 -84.6033 157° South 476 548 37,000  Level Atlanta Center
Thu 08:03:56 PM 33.5908 -84.5450 159° South 476 548 37,000  Level Atlanta Center
Thu 08:04:56 PM 33.4678 -84.4919 160° South 470 541 37,000  Level Atlanta Center
Thu 08:05:56 PM 33.3428 -84.4342 159° South 470 541 37,000  Level Atlanta Center
Thu 08:06:56 PM 33.2178 -84.3789 160° South 470 541 37,000  Level Atlanta Center
Thu 08:07:56 PM 33.0947 -84.3214 159° South 475 547 37,000  Level Atlanta Center
Thu 08:08:56 PM 32.9694 -84.2642 159° South 475 547 37,000  Level Atlanta Center
Thu 08:09:56 PM 32.8444 -84.2069 159° South 475 547 37,000  Level Atlanta Center
Thu 08:10:56 PM 32.7214 -84.1500 159° South 480 552 37,000  Level Atlanta Center
Thu 08:11:56 PM 32.5939 -84.0858 157° South 485 558 37,000  Level Atlanta Center
Thu 08:12:56 PM 32.4689 -84.0314 160° South 485 558 37,000  Level Atlanta Center
Thu 08:13:56 PM 32.3436 -83.9750 159° South 490 564 37,000  Level Atlanta Center
Thu 08:14:56 PM 32.2161 -83.9186 159° South 490 564 37,000  Level Atlanta Center
Thu 08:15:48 PM 32.0939 -83.8589 158° South 509 586 37,000  Level Jacksonville Center
Thu 08:16:48 PM 31.9817 -83.8111 160° South 491 565 37,000  Level Jacksonville Center
Thu 08:17:48 PM 31.8608 -83.7486 156° South 480 552 37,000  Level Jacksonville Center
Thu 08:18:48 PM 31.7317 -83.7108 166° South 480 552 37,000  Level Jacksonville Center
Thu 08:19:48 PM 31.6297 -83.6758 164° South 474 545 37,000  Level Jacksonville Center
Thu 08:20:48 PM 31.4817 -83.6331 166° South 483 556 37,000  Level Jacksonville Center
Thu 08:21:48 PM 31.3567 -83.5956 166° South 483 556 37,000  Level Jacksonville Center
Thu 08:22:48 PM 31.2314 -83.5583 166° South 472 543 37,000  Level Jacksonville Center
Thu 08:23:48 PM 31.1086 -83.5233 166° South 467 537 37,000  Level Jacksonville Center
Thu 08:24:48 PM 30.9814 -83.4839 165° South 467 537 37,000  Level Jacksonville Center
Thu 08:25:48 PM 30.8542 -83.4467 166° South 467 537 37,000 -50 Level Jacksonville Center
Thu 08:26:48 PM 30.7206 -83.4050 165° South 461 531 36,900  Descending Jacksonville Center
Thu 08:27:48 PM 30.5914 -83.3681 166° South 461 531 37,000  Climbing Jacksonville Center
Thu 08:28:48 PM 30.4600 -83.3311 166° South 471 542 36,900  Descending Jacksonville Center
Thu 08:29:48 PM 30.3347 -83.2919 165° South 471 542 37,000  Climbing Jacksonville Center
Thu 08:30:48 PM 30.2056 -83.2556 166° South 471 542 36,900  Descending Jacksonville Center
Thu 08:31:48 PM 30.0783 -83.2189 166° South 471 542 37,000 50 Climbing Jacksonville Center
Thu 08:32:48 PM 29.9425 -83.1825 167° South 477 549 37,000  Level Jacksonville Center
Thu 08:33:48 PM 29.8278 -83.1489 166° South 477 549 37,000  Level Jacksonville Center
Thu 08:34:48 PM 29.7006 -83.1103 165° South 477 549 37,000 -50 Level Jacksonville Center
Thu 08:35:48 PM 29.5711 -83.0717 165° South 477 549 36,900 -50 Descending Jacksonville Center
Thu 08:36:48 PM 29.4417 -83.0356 166° South 477 549 36,900 50 Level Jacksonville Center
Thu 08:37:48 PM 29.3125 -82.9972 165° South 482 555 37,000  Climbing Jacksonville Center
Thu 08:38:48 PM 29.1850 -82.9617 166° South 477 549 36,900  Descending Jacksonville Center
Thu 08:39:48 PM 29.0578 -82.9258 166° South 472 543 37,000 50 Climbing Jacksonville Center
Thu 08:40:48 PM 28.9306 -82.8878 165° South 472 543 37,000  Level Jacksonville Center
Thu 08:41:48 PM 28.8011 -82.8500 166° South 472 543 37,000  Level Jacksonville Center
Thu 08:42:48 PM 28.6717 -82.8169 167° South 472 543 37,000 -50 Level Jacksonville Center
Thu 08:43:48 PM 28.5442 -82.7814 166° South 472 543 36,900  Descending Jacksonville Center
Thu 08:44:48 PM 28.4147 -82.7439 166° South 472 543 37,000 50 Climbing Jacksonville Center
Thu 08:45:48 PM 28.2875 -82.7086 166° South 472 543 37,000  Level Jacksonville Center
Thu 08:48:06 PM 27.9889 -82.6214 166° South 479 551 37,000 -30 Level Miami Center
Thu 08:49:06 PM 27.8608 -82.5869 167° South 474 545 36,900  Descending Miami Center
Thu 08:50:06 PM 27.7353 -82.5500 165° South 468 539 37,000 50 Climbing Miami Center
Thu 08:51:06 PM 27.6114 -82.5158 166° South 468 539 37,000  Level Miami Center
Thu 08:52:06 PM 27.4978 -82.4844 166° South 468 539 37,000  Level Miami Center
Thu 08:53:06 PM 27.3717 -82.4525 167° South 468 539 37,000 -50 Level Miami Center
Thu 08:54:06 PM 27.2356 -82.4156 166° South 468 539 36,900  Descending Miami Center
Thu 08:55:06 PM 27.1094 -82.3817 167° South 468 539 37,000 -200 Climbing Miami Center
Thu 08:56:06 PM 27.0083 -82.3533 166° South 468 539 36,500 -800 Descending Miami Center
Thu 08:57:06 PM 26.8678 -82.3189 168° South 468 539 35,400 -750 Descending Miami Center
Thu 08:58:06 PM 26.7378 -82.3314 185° South 460 529 35,000 -200 Descending Miami Center
Thu 08:59:06 PM 26.6078 -82.3486 187° South 465 535 35,000 -500 Level Miami Center
Thu 09:00:06 PM 26.4758 -82.3611 185° South 470 541 34,000 -1,050 Descending Miami Center
Thu 09:01:06 PM 26.3458 -82.3711 184° South 470 541 32,900 -1,200 Descending Miami Center
Thu 09:02:06 PM 26.2108 -82.3556 174° South 481 554 31,600 -1,500 Descending Miami Center
Thu 09:03:06 PM 26.0947 -82.2786 149° Southeast 467 537 29,900 -1,850 Descending Miami Center
Thu 09:04:06 PM 26.0667 -82.1339 102° East 412 474 27,900 -2,350 Descending Miami Center
Thu 09:05:06 PM 26.0431 -81.9781 100° East 454 522 25,200 -2,450 Descending Miami Center
Thu 09:06:06 PM 26.0211 -81.8269 99° East 466 536 23,000 -2,100 Descending Miami Center
Thu 09:07:06 PM 26.0008 -81.6831 99° East 471 542 21,000 -1,950 Descending Miami Center
Thu 09:08:06 PM 25.9803 -81.5436 99° East 465 535 19,100 -1,850 Descending Miami Center
Thu 09:09:06 PM 25.9594 -81.4086 100° East 460 529 17,300 -1,500 Descending Miami Center
Thu 09:10:06 PM 25.9406 -81.2786 99° East 443 510 16,100 -700 Descending Miami Center
Thu 09:11:06 PM 25.9214 -81.1508 99° East 424 488 15,900 -133 Descending Miami Center
Thu 09:11:36 PM 25.9047 -81.0789 104° East 402 463 15,900  Level Miami Center
Thu 09:12:06 PM 25.8997 -81.0303 97° East 411 473 15,900 -179 Level Miami Center
Thu 09:12:43 PM 25.8831 -80.9533 104° East 362 417 15,700 -1,052 Descending Miami Center
Thu 09:13:43 PM 25.8506 -80.8461 109° East 357 411 14,200 -1,686 Descending Miami Center
Thu 09:14:44 PM 25.8556 -80.7400 87° East 346 398 12,300 -1,770 Descending Miami Center
Thu 09:15:45 PM 25.8603 -80.6364 87° East 340 391 10,600 -1,180 Descending Miami Center
Thu 09:16:46 PM 25.8689 -80.5397 84° East 296 341 9,900 -1,033 Descending Miami Center
Thu 09:17:47 PM 25.8753 -80.4522 85° East 288 331 8,500 -992 Descending Miami Center
Thu 09:18:47 PM 25.8858 -80.3600 83° East 279 321 7,900 -730 Descending Miami Center
Thu 09:19:42 PM 25.8897 -80.2864 87° East 276 318 7,100 -1,345 Descending Miami Center
Thu 09:20:43 PM 25.8981 -80.1942 84° East 275 316 5,300 -1,475 Descending Miami Center
Thu 09:21:44 PM 25.9061 -80.1181 83° East 238 274 4,100 -1,161 Descending Miami Center
Thu 09:22:47 PM 25.8653 -80.0803 140° Southeast 204 235 2,900 -1,143 Descending Miami Center

Login

Don't have an account? Register now (free) for customized features, flight alerts, and more!